createdAt,value
2023-04-28T00:01:47.923Z,3.08
2023-04-28T00:04:15.526Z,2.88
2023-04-28T00:06:43.001Z,3.30
2023-04-28T00:09:11.230Z,2.97
2023-04-28T00:11:38.730Z,2.63
2023-04-28T00:14:06.495Z,2.88
2023-04-28T00:16:33.817Z,3.08
2023-04-28T00:19:01.038Z,2.88
2023-04-28T00:21:28.762Z,2.90
2023-04-28T00:23:56.346Z,2.85
2023-04-28T00:26:23.709Z,2.45
2023-04-28T00:28:51.049Z,2.70
2023-04-28T00:31:18.506Z,2.83
2023-04-28T00:33:45.799Z,3.05
2023-04-28T00:36:13.221Z,2.63
2023-04-28T00:38:40.451Z,2.80
2023-04-28T00:41:10.269Z,3.03
2023-04-28T00:43:50.490Z,2.75
2023-04-28T00:46:27.188Z,3.00
2023-04-28T00:48:54.531Z,2.67
2023-04-28T00:51:21.926Z,3.35
2023-04-28T00:53:49.307Z,3.08
2023-04-28T00:56:16.962Z,3.05
2023-04-28T00:58:44.173Z,3.10
2023-04-28T01:01:11.613Z,2.58
2023-04-28T01:03:40.668Z,3.20
2023-04-28T01:06:10.328Z,3.08
2023-04-28T01:08:39.280Z,2.80
2023-04-28T01:11:14.409Z,2.80
2023-04-28T01:14:01.685Z,2.42
2023-04-28T01:16:33.675Z,3.00
2023-04-28T01:19:01.523Z,2.63
2023-04-28T01:21:34.649Z,2.30
2023-04-28T01:24:14.181Z,2.47
2023-04-28T01:26:41.642Z,2.55
2023-04-28T01:29:08.981Z,2.38
2023-04-28T01:31:36.459Z,2.38
2023-04-28T01:34:03.805Z,2.50
2023-04-28T01:36:32.112Z,2.28
2023-04-28T01:38:59.427Z,2.30
2023-04-28T01:41:26.663Z,2.67
2023-04-28T01:43:53.921Z,2.42
2023-04-28T01:46:21.246Z,2.95
2023-04-28T01:48:48.593Z,2.67
2023-04-28T01:51:15.888Z,2.70
2023-04-28T01:53:43.500Z,2.72
2023-04-28T01:56:11.649Z,2.45
2023-04-28T01:58:39.536Z,2.67
2023-04-28T02:01:07.344Z,2.72
2023-04-28T02:03:35.074Z,2.58
2023-04-28T02:06:04.822Z,2.40
2023-04-28T02:08:32.237Z,2.63
2023-04-28T02:11:01.560Z,2.35
2023-04-28T02:13:29.090Z,2.63
2023-04-28T02:15:56.791Z,2.65
2023-04-28T02:18:24.113Z,2.55
2023-04-28T02:20:51.440Z,2.35
2023-04-28T02:23:18.752Z,2.80
2023-04-28T02:25:46.210Z,2.58
2023-04-28T02:28:14.107Z,2.10
2023-04-28T02:30:41.387Z,2.10
2023-04-28T02:33:08.712Z,2.30
2023-04-28T02:35:35.987Z,2.50
2023-04-28T02:38:03.240Z,2.17
2023-04-28T02:40:30.594Z,2.35
2023-04-28T02:42:58.357Z,1.90
2023-04-28T02:45:25.785Z,1.70
2023-04-28T02:47:53.390Z,1.80
2023-04-28T02:50:20.750Z,2.00
2023-04-28T02:52:49.198Z,1.70
2023-04-28T02:55:23.837Z,1.67
2023-04-28T02:57:52.433Z,1.30
2023-04-28T03:00:19.722Z,1.27
2023-04-28T03:02:49.255Z,1.38
2023-04-28T03:05:16.646Z,1.73
2023-04-28T03:07:44.313Z,1.35
2023-04-28T03:10:11.623Z,1.20
2023-04-28T03:12:39.225Z,1.20
2023-04-28T03:15:08.937Z,1.23
2023-04-28T03:17:39.184Z,1.40
2023-04-28T03:20:08.718Z,1.30
2023-04-28T03:22:36.361Z,1.05
2023-04-28T03:25:05.474Z,1.00
2023-04-28T03:27:41.242Z,0.90
2023-04-28T03:30:10.383Z,1.13
2023-04-28T03:32:37.750Z,1.00
2023-04-28T03:35:05.588Z,1.00
2023-04-28T03:37:33.094Z,0.90
2023-04-28T03:40:00.834Z,0.90
2023-04-28T03:42:31.446Z,0.82
2023-04-28T03:45:09.544Z,1.13
2023-04-28T03:47:36.869Z,0.77
2023-04-28T03:50:04.431Z,1.00
2023-04-28T03:52:31.701Z,0.90
2023-04-28T03:54:58.954Z,0.88
2023-04-28T03:57:26.199Z,1.02
2023-04-28T03:59:53.492Z,1.17
2023-04-28T04:02:21.182Z,1.20
2023-04-28T04:04:49.125Z,0.93
2023-04-28T04:07:16.849Z,0.90
2023-04-28T04:09:44.183Z,0.80
2023-04-28T04:12:11.974Z,1.00
2023-04-28T04:14:39.429Z,1.00
2023-04-28T04:17:06.829Z,0.98
2023-04-28T04:19:34.035Z,1.00
2023-04-28T04:22:01.478Z,1.00
2023-04-28T04:24:30.870Z,1.00
2023-04-28T04:26:58.273Z,1.00
2023-04-28T04:29:33.556Z,0.80
2023-04-28T04:32:05.665Z,0.90
2023-04-28T04:34:33.953Z,0.98
2023-04-28T04:37:01.846Z,0.80
2023-04-28T04:39:29.484Z,1.05
2023-04-28T04:41:58.046Z,0.80
2023-04-28T04:44:44.280Z,1.15
2023-04-28T04:47:20.247Z,1.10
2023-04-28T04:49:49.576Z,1.10
2023-04-28T04:52:17.244Z,0.80
2023-04-28T04:54:46.334Z,0.93
2023-04-28T04:57:15.041Z,0.80
2023-04-28T05:00:11.835Z,0.93
2023-04-28T05:02:40.224Z,0.90
2023-04-28T05:05:20.544Z,0.90
2023-04-28T05:07:56.489Z,0.80
2023-04-28T05:10:24.849Z,1.00
2023-04-28T05:12:52.317Z,0.80
2023-04-28T05:15:19.562Z,0.95
2023-04-28T05:18:10.857Z,0.95
2023-04-28T05:20:38.518Z,1.05
2023-04-28T05:23:06.836Z,1.05
2023-04-28T05:25:34.344Z,1.00
2023-04-28T05:28:07.714Z,1.00
2023-04-28T05:30:36.148Z,0.90
2023-04-28T05:33:04.095Z,1.33
2023-04-28T05:35:31.792Z,1.02
2023-04-28T05:37:59.392Z,1.05
2023-04-28T05:40:27.446Z,1.05
2023-04-28T05:42:55.812Z,0.88
2023-04-28T05:45:23.248Z,1.10
2023-04-28T05:47:51.093Z,1.08
2023-04-28T05:50:18.616Z,0.93
2023-04-28T05:52:45.848Z,1.00
2023-04-28T05:55:13.677Z,1.08
2023-04-28T05:57:51.885Z,1.58
2023-04-28T06:00:20.433Z,1.40
2023-04-28T06:02:47.906Z,1.23
2023-04-28T06:05:15.610Z,1.10
2023-04-28T06:07:43.892Z,1.10
2023-04-28T06:10:11.528Z,1.33
2023-04-28T06:12:39.500Z,1.52
2023-04-28T06:15:07.268Z,1.48
2023-04-28T06:17:35.122Z,1.40
2023-04-28T06:20:02.491Z,1.48
2023-04-28T06:22:29.857Z,1.50
2023-04-28T06:24:57.085Z,1.60
2023-04-28T06:27:33.014Z,1.48
2023-04-28T06:30:00.359Z,1.50
2023-04-28T06:32:27.659Z,1.35
2023-04-28T06:34:57.108Z,1.40
2023-04-28T06:37:26.989Z,1.63
2023-04-28T06:39:54.483Z,1.75
2023-04-28T06:42:21.740Z,1.60
2023-04-28T06:44:58.441Z,2.03
2023-04-28T06:47:28.151Z,1.52
2023-04-28T06:49:55.444Z,1.80
2023-04-28T06:52:33.464Z,1.40
2023-04-28T06:55:08.023Z,2.08
2023-04-28T06:57:35.648Z,1.48
2023-04-28T07:00:04.254Z,1.60
2023-04-28T07:02:31.736Z,2.20
2023-04-28T07:04:59.124Z,1.75
2023-04-28T07:07:26.587Z,1.65
2023-04-28T07:09:53.908Z,1.80
2023-04-28T07:12:23.479Z,1.60
2023-04-28T07:14:51.613Z,1.80
2023-04-28T07:17:19.217Z,1.52
2023-04-28T07:19:46.473Z,2.13
2023-04-28T07:22:13.680Z,1.92
2023-04-28T07:24:40.899Z,2.00
2023-04-28T07:27:08.306Z,1.75
2023-04-28T07:29:35.556Z,1.40
2023-04-28T07:32:07.315Z,1.65
2023-04-28T07:34:38.242Z,1.60
2023-04-28T07:37:05.722Z,6.00
2023-04-28T07:39:39.179Z,2.22
2023-04-28T07:42:06.515Z,2.10
2023-04-28T07:44:34.020Z,1.73
2023-04-28T07:47:01.936Z,1.83
2023-04-28T07:49:29.624Z,1.70
2023-04-28T07:51:57.314Z,1.85
2023-04-28T07:54:25.346Z,1.80
2023-04-28T07:56:53.051Z,1.90
2023-04-28T07:59:20.557Z,4.95
2023-04-28T08:01:47.903Z,1.67
2023-04-28T08:04:15.400Z,1.60
2023-04-28T08:06:43.166Z,1.38
2023-04-28T08:09:10.614Z,1.55
2023-04-28T08:11:38.191Z,1.40
2023-04-28T08:14:05.548Z,1.50
2023-04-28T08:16:34.477Z,1.58
2023-04-28T08:19:01.977Z,1.50
2023-04-28T08:21:29.239Z,1.60
2023-04-28T08:23:56.503Z,1.80
2023-04-28T08:26:24.765Z,1.45
2023-04-28T08:28:52.526Z,1.30
2023-04-28T08:31:19.804Z,1.63
2023-04-28T08:33:50.112Z,1.40
2023-04-28T08:36:18.295Z,1.52
2023-04-28T08:38:46.041Z,1.33
2023-04-28T08:41:15.634Z,1.58
2023-04-28T08:43:43.390Z,1.75
2023-04-28T08:46:11.114Z,2.30
2023-04-28T08:48:43.515Z,1.15
2023-04-28T08:51:17.132Z,1.20
2023-04-28T08:54:11.719Z,1.40
2023-04-28T08:56:36.722Z,1.30
2023-04-28T08:59:05.054Z,1.27
2023-04-28T09:01:32.670Z,1.30
2023-04-28T09:04:04.057Z,2.03
2023-04-28T09:06:36.151Z,1.60
2023-04-28T09:09:20.084Z,1.50
2023-04-28T09:11:55.631Z,1.45
2023-04-28T09:14:23.970Z,1.13
2023-04-28T09:16:51.913Z,1.48
2023-04-28T09:19:19.711Z,1.30
2023-04-28T09:21:54.888Z,1.38
2023-04-28T09:24:33.852Z,1.50
2023-04-28T09:27:02.655Z,2.17
2023-04-28T09:29:31.006Z,1.95
2023-04-28T09:32:13.680Z,1.98
2023-04-28T09:34:56.699Z,1.58
2023-04-28T09:37:30.780Z,1.30
2023-04-28T09:40:06.942Z,1.23
2023-04-28T09:42:35.399Z,1.40
2023-04-28T09:45:10.795Z,1.30
2023-04-28T09:47:42.543Z,1.90
2023-04-28T09:50:14.462Z,1.90
2023-04-28T09:52:43.015Z,2.10
2023-04-28T09:55:12.039Z,2.25
2023-04-28T09:57:40.118Z,2.53
2023-04-28T10:00:09.555Z,2.83
2023-04-28T10:05:09.938Z,2.60
2023-04-28T10:07:37.758Z,1.90
2023-04-28T10:10:05.631Z,6.50
2023-04-28T10:12:33.034Z,2.55
2023-04-28T10:15:00.596Z,1.30
2023-04-28T10:17:29.798Z,1.38
2023-04-28T10:19:57.571Z,1.40
2023-04-28T10:23:02.183Z,1.73
2023-04-28T10:25:35.242Z,1.40
2023-04-28T10:28:06.877Z,2.70
2023-04-28T10:30:35.180Z,7.43
2023-04-28T10:33:06.829Z,3.63
2023-04-28T10:35:36.434Z,2.50
2023-04-28T10:38:08.520Z,2.08
2023-04-28T10:40:38.641Z,1.38
2023-04-28T10:43:07.263Z,2.65
2023-04-28T10:45:56.227Z,1.95
2023-04-28T10:48:47.001Z,2.72
2023-04-28T10:53:53.316Z,2.40
2023-04-28T10:56:25.997Z,2.00
2023-04-28T10:58:54.899Z,4.22
2023-04-28T11:01:22.693Z,2.25
2023-04-28T11:03:51.761Z,2.20
2023-04-28T11:06:26.199Z,3.63
2023-04-28T11:08:56.426Z,1.70
2023-04-28T11:13:54.996Z,1.88
2023-04-28T11:16:24.413Z,1.57
2023-04-28T11:18:55.864Z,1.60
2023-04-28T11:21:24.791Z,1.42
2023-04-28T11:23:52.043Z,1.83
2023-04-28T11:26:19.958Z,1.52
2023-04-28T11:28:55.426Z,1.40
2023-04-28T11:31:24.336Z,1.27
2023-04-28T11:33:55.616Z,1.27
2023-04-28T11:36:24.753Z,1.58
2023-04-28T11:38:52.124Z,1.70
2023-04-28T11:41:19.541Z,1.60
2023-04-28T11:43:47.705Z,1.67
2023-04-28T11:46:22.241Z,1.40
2023-04-28T11:49:00.433Z,1.20
2023-04-28T11:51:38.849Z,1.20
2023-04-28T11:54:07.961Z,1.10
2023-04-28T11:56:39.652Z,1.60
2023-04-28T11:59:08.785Z,1.10
2023-04-28T12:01:52.825Z,1.13
2023-04-28T12:04:38.084Z,1.25
2023-04-28T12:07:16.970Z,1.50
2023-04-28T12:10:05.603Z,1.80
2023-04-28T12:15:06.232Z,1.20
2023-04-28T12:17:34.417Z,1.50
2023-04-28T12:20:06.946Z,1.30
2023-04-28T12:22:50.770Z,1.10
2023-04-28T12:25:19.452Z,1.42
2023-04-28T12:28:06.718Z,1.50
2023-04-28T12:30:35.895Z,1.23
2023-04-28T12:33:04.486Z,1.20
2023-04-28T12:35:33.216Z,1.10
2023-04-28T12:38:00.653Z,1.20
2023-04-28T12:40:27.934Z,0.98
2023-04-28T12:42:55.167Z,1.00
2023-04-28T12:45:22.438Z,1.00
2023-04-28T12:47:49.804Z,1.08
2023-04-28T12:50:17.115Z,1.02
2023-04-28T12:52:44.321Z,0.93
2023-04-28T12:55:11.835Z,0.95
2023-04-28T12:57:39.766Z,0.90
2023-04-28T13:00:08.445Z,1.00
2023-04-28T13:02:36.182Z,0.80
2023-04-28T13:05:03.678Z,1.10
2023-04-28T13:07:31.870Z,0.80
2023-04-28T13:09:59.445Z,0.98
2023-04-28T13:12:26.811Z,1.15
2023-04-28T13:14:54.144Z,4.78
2023-04-28T13:17:21.462Z,0.90
2023-04-28T13:19:48.773Z,1.13
2023-04-28T13:22:16.190Z,1.02
2023-04-28T13:24:44.033Z,0.88
2023-04-28T13:27:11.647Z,0.80
2023-04-28T13:29:39.103Z,0.85
2023-04-28T13:32:06.619Z,0.70
2023-04-28T13:34:33.910Z,0.80
2023-04-28T13:37:01.261Z,0.50
2023-04-28T13:39:28.563Z,0.60
2023-04-28T13:41:55.878Z,0.50
2023-04-28T13:44:23.229Z,0.88
2023-04-28T13:46:50.477Z,0.80
2023-04-28T13:49:18.064Z,1.23
2023-04-28T13:51:45.762Z,1.10
2023-04-28T13:54:13.033Z,1.20
2023-04-28T13:56:40.498Z,1.00
2023-04-28T13:59:07.884Z,0.47
2023-04-28T14:01:35.209Z,0.70
2023-04-28T14:04:03.380Z,0.85
2023-04-28T14:06:32.424Z,0.70
2023-04-28T14:11:28.296Z,1.70
2023-04-28T14:13:55.457Z,1.13
2023-04-28T14:16:22.736Z,0.93
2023-04-28T14:18:50.039Z,0.75
2023-04-28T14:21:17.370Z,0.77
2023-04-28T14:23:44.594Z,0.70
2023-04-28T14:26:11.868Z,0.90
2023-04-28T14:28:41.014Z,0.70
2023-04-28T14:31:09.080Z,1.17
2023-04-28T14:33:37.132Z,1.20
2023-04-28T14:36:05.530Z,0.82
2023-04-28T14:38:32.917Z,0.70
2023-04-28T14:41:00.468Z,0.70
2023-04-28T14:43:27.774Z,0.60
2023-04-28T14:45:55.153Z,1.08
2023-04-28T14:48:22.373Z,0.50
2023-04-28T14:50:51.266Z,0.55
2023-04-28T14:53:18.894Z,0.60
2023-04-28T14:55:46.159Z,0.77
2023-04-28T14:58:13.393Z,0.60
2023-04-28T15:00:41.650Z,0.80
2023-04-28T15:03:09.115Z,0.63
2023-04-28T15:05:36.532Z,0.70
2023-04-28T15:08:06.373Z,0.50
2023-04-28T15:10:39.012Z,0.80
2023-04-28T15:13:07.547Z,0.80
2023-04-28T15:15:35.191Z,0.60
2023-04-28T15:18:04.373Z,0.60
2023-04-28T15:20:33.340Z,1.15
2023-04-28T15:23:00.912Z,0.40
2023-04-28T15:25:28.305Z,1.42
2023-04-28T15:27:56.174Z,0.73
2023-04-28T15:30:23.640Z,0.80
2023-04-28T15:32:51.193Z,0.70
2023-04-28T15:35:18.703Z,0.63
2023-04-28T15:37:51.798Z,0.90
2023-04-28T15:40:20.051Z,0.50
2023-04-28T15:42:53.071Z,0.80
2023-04-28T15:45:22.053Z,0.65
2023-04-28T15:47:54.850Z,0.68
2023-04-28T15:50:22.516Z,0.57
2023-04-28T15:52:51.129Z,0.75
2023-04-28T15:55:20.861Z,0.50
2023-04-28T15:57:49.012Z,0.63
2023-04-28T16:00:16.645Z,0.65
2023-04-28T16:02:45.068Z,0.80
2023-04-28T16:05:12.638Z,0.70
2023-04-28T16:07:43.013Z,1.10
2023-04-28T16:10:15.135Z,1.00
2023-04-28T16:12:43.179Z,0.80
2023-04-28T16:15:12.708Z,0.63
2023-04-28T16:17:41.034Z,0.60
2023-04-28T16:20:11.603Z,0.70
2023-04-28T16:22:40.274Z,0.82
2023-04-28T16:25:07.838Z,0.50
2023-04-28T16:27:35.560Z,0.70
2023-04-28T16:30:04.971Z,1.05
2023-04-28T16:32:33.586Z,1.13
2023-04-28T16:35:01.044Z,1.50
2023-04-28T16:37:28.949Z,0.75
2023-04-28T16:39:56.617Z,0.93
2023-04-28T16:42:23.900Z,1.30
2023-04-28T16:44:52.657Z,1.02
2023-04-28T16:47:20.987Z,0.98
2023-04-28T16:49:48.740Z,0.63
2023-04-28T16:52:16.842Z,0.57
2023-04-28T16:54:44.310Z,0.57
2023-04-28T16:57:11.593Z,0.80
2023-04-28T16:59:38.972Z,0.80
2023-04-28T17:02:06.797Z,1.13
2023-04-28T17:04:34.893Z,0.80
2023-04-28T17:07:05.396Z,0.93
2023-04-28T17:09:33.424Z,0.80
2023-04-28T17:12:01.220Z,0.90
2023-04-28T17:14:28.707Z,0.80
2023-04-28T17:16:56.609Z,0.80
2023-04-28T17:19:23.904Z,1.48
2023-04-28T17:21:52.862Z,0.85
2023-04-28T17:24:20.197Z,1.35
2023-04-28T17:26:47.533Z,0.90
2023-04-28T17:29:15.484Z,1.17
2023-04-28T17:31:42.890Z,0.90
2023-04-28T17:34:10.460Z,2.35
2023-04-28T17:36:37.845Z,2.83
2023-04-28T17:39:05.175Z,1.50
2023-04-28T17:41:32.539Z,1.65
2023-04-28T17:43:59.905Z,1.20
2023-04-28T17:46:27.711Z,2.08
2023-04-28T17:48:55.093Z,2.42
2023-04-28T17:51:22.441Z,2.30
2023-04-28T17:53:49.872Z,1.30
2023-04-28T17:56:17.329Z,2.70
2023-04-28T17:58:44.612Z,2.78
2023-04-28T18:01:11.954Z,2.53
2023-04-28T18:03:39.711Z,2.83
2023-04-28T18:06:08.229Z,2.53
2023-04-28T18:08:36.724Z,4.07
2023-04-28T18:11:04.901Z,2.10
2023-04-28T18:13:33.144Z,2.00
2023-04-28T18:16:01.013Z,1.65
2023-04-28T18:18:30.233Z,2.85
2023-04-28T18:20:59.642Z,1.50
2023-04-28T18:23:27.047Z,1.67
2023-04-28T18:25:54.316Z,1.05
2023-04-28T18:28:21.656Z,1.15
2023-04-28T18:30:49.207Z,1.20
2023-04-28T18:33:23.002Z,1.58
2023-04-28T18:35:59.870Z,1.80
2023-04-28T18:38:27.365Z,1.20
2023-04-28T18:40:54.875Z,1.55
2023-04-28T18:43:23.612Z,1.73
2023-04-28T18:45:51.008Z,9.32
2023-04-28T18:48:19.119Z,9.45
2023-04-28T18:50:48.620Z,6.40
2023-04-28T18:53:17.074Z,3.35
2023-04-28T18:55:44.831Z,5.63
2023-04-28T18:58:12.211Z,4.55
2023-04-28T19:00:39.772Z,3.90
2023-04-28T19:03:07.212Z,2.13
2023-04-28T19:05:34.640Z,1.85
2023-04-28T19:08:02.007Z,1.40
2023-04-28T19:10:29.343Z,1.08
2023-04-28T19:12:56.631Z,1.42
2023-04-28T19:15:25.126Z,1.20
2023-04-28T19:17:53.265Z,1.35
2023-04-28T19:20:20.638Z,1.75
2023-04-28T19:22:48.054Z,2.00
2023-04-28T19:25:16.643Z,2.40
2023-04-28T19:27:44.953Z,3.30
2023-04-28T19:30:13.797Z,4.00
2023-04-28T19:32:41.948Z,5.80
2023-04-28T19:35:10.019Z,3.75
2023-04-28T19:37:37.340Z,4.05
2023-04-28T19:40:05.050Z,3.95
2023-04-28T19:42:33.577Z,4.15
2023-04-28T19:45:00.951Z,3.95
2023-04-28T19:47:29.894Z,4.45
2023-04-28T19:49:57.317Z,4.80
2023-04-28T19:52:24.583Z,4.70
2023-04-28T19:54:52.226Z,5.25
2023-04-28T19:57:19.792Z,5.53
2023-04-28T19:59:48.105Z,5.05
2023-04-28T20:02:16.363Z,5.72
2023-04-28T20:04:43.784Z,5.57
2023-04-28T20:07:12.050Z,6.60
2023-04-28T20:09:39.507Z,7.50
2023-04-28T20:12:08.628Z,8.43
2023-04-28T20:14:37.188Z,8.00
2023-04-28T20:17:05.214Z,7.68
2023-04-28T20:19:32.643Z,8.38
2023-04-28T20:22:02.419Z,8.57
2023-04-28T20:24:30.039Z,8.55
2023-04-28T20:26:58.103Z,9.25
2023-04-28T20:29:27.130Z,9.60
2023-04-28T20:31:55.288Z,9.43
2023-04-28T20:34:23.348Z,9.70
2023-04-28T20:36:51.589Z,10.10
2023-04-28T20:39:19.330Z,9.43
2023-04-28T20:41:47.820Z,9.63
2023-04-28T20:44:15.212Z,9.80
2023-04-28T20:46:43.313Z,10.05
2023-04-28T20:49:12.368Z,10.30
2023-04-28T20:51:44.037Z,9.90
2023-04-28T20:54:12.724Z,10.13
2023-04-28T20:56:42.081Z,10.23
2023-04-28T20:59:09.361Z,9.32
2023-04-28T21:01:36.813Z,8.73
2023-04-28T21:04:04.350Z,9.00
2023-04-28T21:06:31.966Z,8.13
2023-04-28T21:08:59.264Z,8.57
2023-04-28T21:11:27.060Z,8.15
2023-04-28T21:13:54.437Z,9.40
2023-04-28T21:16:21.968Z,8.02
2023-04-28T21:18:50.036Z,7.30
2023-04-28T21:21:18.290Z,7.40
2023-04-28T21:23:45.873Z,7.25
2023-04-28T21:26:13.416Z,7.30
2023-04-28T21:28:41.604Z,7.43
2023-04-28T21:31:09.845Z,6.90
2023-04-28T21:33:37.354Z,7.60
2023-04-28T21:36:07.916Z,6.65
2023-04-28T21:38:37.173Z,6.03
2023-04-28T21:41:04.933Z,6.80
2023-04-28T21:43:32.225Z,6.45
2023-04-28T21:45:59.576Z,6.00
2023-04-28T21:48:26.929Z,5.65
2023-04-28T21:50:54.187Z,5.68
2023-04-28T21:53:21.537Z,5.18
2023-04-28T21:55:49.224Z,5.70
2023-04-28T21:58:16.552Z,4.80
2023-04-28T22:00:46.481Z,4.72
2023-04-28T22:03:15.496Z,3.83
2023-04-28T22:05:44.019Z,3.90
2023-04-28T22:08:11.807Z,3.20
2023-04-28T22:10:39.257Z,3.78
2023-04-28T22:13:06.806Z,3.08
2023-04-28T22:15:34.218Z,3.00
2023-04-28T22:18:01.805Z,2.88
2023-04-28T22:20:29.183Z,3.38
2023-04-28T22:22:57.663Z,3.15
2023-04-28T22:25:25.360Z,2.70
2023-04-28T22:27:52.646Z,2.70
2023-04-28T22:30:19.889Z,2.90
2023-04-28T22:32:47.721Z,2.65
2023-04-28T22:35:16.554Z,2.58
2023-04-28T22:37:44.634Z,2.80
2023-04-28T22:40:12.142Z,3.00
2023-04-28T22:42:41.013Z,2.60
2023-04-28T22:45:10.248Z,2.92
2023-04-28T22:47:39.653Z,2.95
2023-04-28T22:50:09.124Z,2.50
2023-04-28T22:52:36.961Z,2.80
2023-04-28T22:55:04.863Z,2.75
2023-04-28T22:57:32.210Z,2.78
2023-04-28T22:59:59.744Z,2.70
2023-04-28T23:02:27.147Z,2.83
2023-04-28T23:04:54.557Z,2.95
2023-04-28T23:07:21.778Z,2.92
2023-04-28T23:09:49.314Z,3.08
2023-04-28T23:12:16.844Z,2.85
2023-04-28T23:14:44.271Z,3.20
2023-04-28T23:17:11.668Z,2.97
2023-04-28T23:19:39.411Z,3.00
2023-04-28T23:22:07.881Z,3.58
2023-04-28T23:24:37.959Z,3.42
2023-04-28T23:27:06.089Z,3.75
2023-04-28T23:29:35.256Z,3.58
2023-04-28T23:32:03.241Z,3.63
2023-04-28T23:34:32.239Z,3.30
2023-04-28T23:36:59.431Z,3.53
2023-04-28T23:39:29.820Z,3.83
2023-04-28T23:41:57.187Z,3.33
2023-04-28T23:44:24.452Z,3.72
2023-04-28T23:46:51.811Z,3.72
2023-04-28T23:49:20.837Z,4.00
2023-04-28T23:51:48.217Z,3.70
2023-04-28T23:54:15.525Z,3.80
2023-04-28T23:56:43.075Z,4.15
2023-04-28T23:59:10.398Z,3.75
